Time;durP1;ratioP1;P1;durP2;ratioP2;P2;SDS_P1;SDS_P2;PMS_P1;PMS_P2;Temp;Humidity;BMP_temperature;BMP_pressure;BME280_temperature;BME280_humidity;BME280_pressure;Samples;Min_cycle;Max_cycle;Signal;HPM_P1;HPM_P2
2022/09/14 00:03:32;;;;;;;7.68;1.65;;;;;;;15.02;63.58;99684.69;10194312;29;20393;-78
2022/09/14 00:08:35;;;;;;;8.35;1.75;;;;;;;15.10;63.20;99676.56;10186376;29;20047;-79
2022/09/14 00:13:40;;;;;;;4.03;1.33;;;;;;;15.16;63.27;99677.75;10199329;29;20044;-78
2022/09/14 00:18:44;;;;;;;5.13;1.20;;;;;;;15.18;63.17;99683.84;10189530;29;20072;-78
2022/09/14 00:23:47;;;;;;;3.72;1.30;;;;;;;15.11;62.96;99675.56;10195892;29;20457;-78
2022/09/14 00:28:51;;;;;;;3.10;1.23;;;;;;;15.05;63.66;99671.66;10200040;29;20055;-79
2022/09/14 00:33:55;;;;;;;7.20;1.20;;;;;;;15.03;63.45;99670.16;10208732;29;20052;-79
2022/09/14 00:38:59;;;;;;;9.80;1.55;;;;;;;14.83;63.42;99662.38;10183346;29;20079;-78
2022/09/14 00:44:05;;;;;;;5.13;1.30;;;;;;;14.39;65.28;99661.84;10199683;29;20508;-79
2022/09/14 00:49:17;;;;;;;8.82;1.30;;;;;;;14.12;66.31;99668.34;10194393;29;20047;-78
2022/09/14 00:54:20;;;;;;;4.33;1.43;;;;;;;14.32;66.00;99652.72;10202896;29;20079;-79
2022/09/14 00:59:27;;;;;;;3.72;1.00;;;;;;;14.49;65.63;99638.22;10180208;29;20079;-79
2022/09/14 01:04:31;;;;;;;5.90;1.65;;;;;;;14.60;65.28;99637.06;10180444;29;20048;-79
2022/09/14 01:09:42;;;;;;;2.60;1.20;;;;;;;14.66;65.07;99632.84;10203405;29;20052;-79
2022/09/14 01:14:50;;;;;;;5.20;1.30;;;;;;;14.69;64.97;99637.91;10186335;29;20052;-78
2022/09/14 01:20:15;;;;;;;4.85;1.40;;;;;;;14.69;65.26;99632.50;10199189;29;20458;-78
2022/09/14 01:25:37;;;;;;;5.47;1.30;;;;;;;14.71;65.05;99619.66;10199183;29;20052;-79
2022/09/14 01:30:43;;;;;;;5.65;1.58;;;;;;;14.62;65.24;99629.63;10190545;29;20075;-78
2022/09/14 01:35:51;;;;;;;6.57;1.50;;;;;;;14.60;65.65;99616.28;10210392;29;20086;-79
2022/09/14 01:40:57;;;;;;;3.95;1.45;;;;;;;14.62;65.47;99623.34;10194548;29;20130;-78
2022/09/14 01:46:08;;;;;;;4.25;1.25;;;;;;;14.56;65.56;99616.78;10211073;29;20048;-79
2022/09/14 01:51:19;;;;;;;4.28;1.42;;;;;;;14.43;65.95;99611.88;10204477;29;20525;-79
2022/09/14 01:56:30;;;;;;;6.82;1.45;;;;;;;14.33;66.25;99622.81;10209381;29;20144;-80
2022/09/14 02:01:38;;;;;;;5.53;2.10;;;;;;;14.29;66.86;99605.25;10198657;29;20055;-79
2022/09/14 02:06:44;;;;;;;3.65;1.83;;;;;;;14.25;66.89;99608.47;10179246;29;20124;-78
2022/09/14 02:11:47;;;;;;;4.50;1.90;;;;;;;14.22;67.01;99604.22;10174993;29;20075;-79
2022/09/14 02:16:51;;;;;;;6.90;1.65;;;;;;;14.22;67.17;99600.69;10201920;29;20118;-79
2022/09/14 02:21:53;;;;;;;7.78;2.38;;;;;;;14.19;67.33;99604.56;10201792;29;20136;-78
2022/09/14 02:26:58;;;;;;;7.25;1.95;;;;;;;14.15;67.14;99595.09;10192880;29;20082;-78
2022/09/14 02:32:15;;;;;;;9.15;1.98;;;;;;;14.08;67.43;99605.72;10202021;29;20398;-78
2022/09/14 02:37:20;;;;;;;5.97;1.70;;;;;;;14.07;67.47;99595.09;10207904;29;20521;-78
2022/09/14 02:42:35;;;;;;;5.18;1.85;;;;;;;14.00;67.37;99578.72;10213894;29;20071;-79
2022/09/14 02:47:50;;;;;;;4.57;1.65;;;;;;;13.93;67.75;99583.06;10202419;29;20086;-78
2022/09/14 02:52:59;;;;;;;6.00;1.98;;;;;;;13.86;68.21;99568.56;10203298;29;20063;-78
2022/09/14 02:58:05;;;;;;;6.10;1.88;;;;;;;13.82;68.18;99556.41;10207301;29;20126;-79
2022/09/14 03:03:11;;;;;;;7.50;1.95;;;;;;;13.81;68.35;99547.47;10203244;29;20116;-78
2022/09/14 03:08:14;;;;;;;7.75;2.08;;;;;;;13.77;68.42;99550.66;10190795;29;20071;-78
2022/09/14 03:13:17;;;;;;;8.10;2.17;;;;;;;13.70;68.70;99559.41;10201734;29;20075;-79
2022/09/14 03:18:21;;;;;;;3.90;2.00;;;;;;;13.66;68.60;99551.81;10205579;29;20098;-80
2022/09/14 03:23:23;;;;;;;6.70;2.47;;;;;;;13.70;68.82;99555.88;10200192;29;20107;-79
2022/09/14 03:28:26;;;;;;;6.10;2.13;;;;;;;13.64;69.00;99562.78;10202338;29;20497;-79
2022/09/14 03:33:31;;;;;;;9.90;3.35;;;;;;;13.56;69.03;99551.94;10175743;29;20158;-78
2022/09/14 03:38:33;;;;;;;12.35;3.78;;;;;;;13.60;69.17;99547.06;10176555;29;20044;-79
2022/09/14 03:43:36;;;;;;;9.63;2.45;;;;;;;13.60;68.93;99539.84;10203567;29;20087;-78
2022/09/14 03:48:41;;;;;;;10.05;3.08;;;;;;;13.61;68.80;99540.69;10177040;29;20055;-79
2022/09/14 03:53:44;;;;;;;5.60;2.58;;;;;;;13.60;68.81;99529.06;10185403;29;20048;-78
2022/09/14 03:58:48;;;;;;;6.10;2.40;;;;;;;13.59;68.68;99527.34;10207830;29;20054;-79
2022/09/14 04:03:53;;;;;;;4.95;2.47;;;;;;;13.54;68.68;99529.69;10200435;29;20138;-78
2022/09/14 04:08:55;;;;;;;7.50;2.15;;;;;;;13.51;69.08;99523.78;10213572;29;20051;-77
2022/09/14 04:14:01;;;;;;;3.63;2.10;;;;;;;13.45;69.03;99530.69;10223626;29;20048;-79
2022/09/14 04:19:06;;;;;;;5.20;1.90;;;;;;;13.46;69.08;99521.56;10206666;29;20044;-77
2022/09/14 04:24:12;;;;;;;7.90;2.80;;;;;;;13.46;69.20;99522.41;10198334;29;20106;-78
2022/09/14 04:29:17;;;;;;;6.93;2.40;;;;;;;13.46;69.21;99518.88;10200532;29;20046;-78
2022/09/14 04:34:22;;;;;;;5.88;2.25;;;;;;;13.45;69.12;99519.88;10204856;29;20048;-78
2022/09/14 04:39:25;;;;;;;5.40;2.22;;;;;;;13.35;69.34;99524.53;10182109;29;20134;-78
2022/09/14 04:44:28;;;;;;;4.72;1.95;;;;;;;13.32;69.55;99528.41;10182836;29;20048;-79
2022/09/14 04:49:32;;;;;;;4.97;2.17;;;;;;;13.38;69.66;99518.84;10200210;29;20078;-79
2022/09/14 04:54:35;;;;;;;3.53;2.03;;;;;;;13.39;69.56;99513.28;10196352;29;20052;-78
2022/09/14 04:59:37;;;;;;;7.30;2.33;;;;;;;13.32;69.67;99508.69;10192005;29;20047;-78
2022/09/14 05:04:42;;;;;;;9.02;2.92;;;;;;;13.37;69.75;99509.91;10186364;29;20067;-77
2022/09/14 05:09:44;;;;;;;6.25;2.33;;;;;;;13.42;69.57;99506.72;10175283;29;20127;-77
2022/09/14 05:14:47;;;;;;;6.28;2.10;;;;;;;13.42;69.42;99510.28;10175358;29;20139;-77
2022/09/14 05:19:51;;;;;;;8.75;2.50;;;;;;;13.45;69.63;99509.09;10175390;29;20072;-78
2022/09/14 05:24:54;;;;;;;2.97;1.20;;;;;;;13.62;70.32;99500.03;10162002;29;20074;-78
2022/09/14 05:29:57;;;;;;;7.22;1.25;;;;;;;13.77;69.83;99505.63;10207577;29;20055;-79
2022/09/14 05:35:01;;;;;;;5.43;1.52;;;;;;;13.96;69.00;99509.00;10198040;29;20087;-78
2022/09/14 05:40:04;;;;;;;4.65;1.55;;;;;;;14.15;68.48;99505.97;10193468;29;20071;-77
2022/09/14 05:45:08;;;;;;;7.03;1.67;;;;;;;14.30;68.03;99507.00;10179659;29;20054;-78
2022/09/14 05:50:13;;;;;;;3.38;1.20;;;;;;;14.35;67.18;99501.09;10181058;29;20390;-79
2022/09/14 05:55:16;;;;;;;4.90;1.15;;;;;;;14.28;67.25;99495.50;10180504;29;20076;-79
2022/09/14 06:00:20;;;;;;;4.88;1.30;;;;;;;14.48;67.51;99495.19;10185913;29;20047;-79
2022/09/14 06:05:25;;;;;;;4.13;1.33;;;;;;;14.59;66.93;99492.97;10193183;29;20489;-78
2022/09/14 06:10:28;;;;;;;6.80;2.10;;;;;;;14.68;66.78;99483.00;10206372;29;20046;-80
2022/09/14 06:15:33;;;;;;;2.85;1.45;;;;;;;14.80;66.29;99492.41;10199504;29;20055;-78
2022/09/14 06:20:37;;;;;;;3.15;1.33;;;;;;;14.78;66.15;99483.66;10198251;29;20071;-79
2022/09/14 06:25:40;;;;;;;5.22;1.80;;;;;;;14.95;65.69;99486.31;10198411;29;20568;-78
2022/09/14 06:30:43;;;;;;;4.32;1.98;;;;;;;15.19;65.56;99482.63;10201797;29;20068;-78
2022/09/14 06:35:56;;;;;;;8.50;2.13;;;;;;;15.04;64.93;99474.44;10199527;29;20044;-77
2022/09/14 06:41:00;;;;;;;;;;;;;;;15.12;65.44;99473.56;10206423;29;20114;-77
2022/09/14 06:46:05;;;;;;;7.63;2.30;;;;;;;15.28;64.50;99473.47;10193311;29;20555;-78
2022/09/14 06:51:15;;;;;;;10.32;2.67;;;;;;;15.38;64.15;99476.81;10193149;29;20111;-78
2022/09/14 06:56:18;;;;;;;9.68;2.42;;;;;;;15.50;63.86;99471.03;10206020;29;20520;-80
2022/09/14 07:01:21;;;;;;;6.55;3.00;;;;;;;15.41;63.73;99467.50;10200956;29;20557;-77
2022/09/14 07:06:27;;;;;;;13.48;3.33;;;;;;;15.40;63.52;99474.78;10212450;29;20063;-80
2022/09/14 07:11:31;;;;;;;9.23;3.92;;;;;;;15.47;63.48;99486.59;10203651;29;20059;-78
2022/09/14 07:16:35;;;;;;;10.27;4.07;;;;;;;15.54;62.83;99486.69;10202263;29;20047;-80
2022/09/14 07:21:39;;;;;;;8.50;5.20;;;;;;;15.58;63.32;99481.78;10193566;29;20568;-79
2022/09/14 07:26:43;;;;;;;9.10;4.25;;;;;;;15.89;63.72;99495.28;10183247;29;20501;-80
2022/09/14 07:31:49;;;;;;;7.60;3.65;;;;;;;16.08;62.65;99491.25;10191755;29;20044;-81
2022/09/14 07:36:53;;;;;;;7.88;4.20;;;;;;;16.32;61.50;99487.53;10169852;29;20134;-80
2022/09/14 07:41:56;;;;;;;7.40;4.13;;;;;;;16.44;60.57;99494.16;10181169;29;20036;-80
2022/09/14 07:46:59;;;;;;;9.20;4.15;;;;;;;16.43;60.37;99486.19;10188685;29;20115;-80
2022/09/14 07:52:03;;;;;;;11.50;3.78;;;;;;;16.25;60.30;99483.81;10203477;29;20049;-80
2022/09/14 07:57:06;;;;;;;7.00;3.53;;;;;;;16.44;60.48;99496.88;10190836;29;20051;-80
2022/09/14 08:02:10;;;;;;;9.23;3.88;;;;;;;16.38;60.10;99502.19;10194673;29;20078;-80
2022/09/14 08:07:15;;;;;;;6.00;3.50;;;;;;;16.70;60.30;99498.31;10211564;29;20540;-81
2022/09/14 08:12:18;;;;;;;7.10;3.15;;;;;;;16.64;60.33;99496.34;10202186;29;20076;-81
2022/09/14 08:17:22;;;;;;;10.07;3.72;;;;;;;16.84;59.98;99499.34;10204617;29;20091;-80
2022/09/14 08:22:27;;;;;;;10.50;4.93;;;;;;;16.92;58.90;99502.81;10202681;29;20120;-80
2022/09/14 08:27:30;;;;;;;9.90;3.40;;;;;;;16.87;59.83;99493.56;10210308;29;20122;-82
2022/09/14 08:32:33;;;;;;;5.38;2.00;;;;;;;17.20;59.25;99485.91;10209302;29;20044;-79
2022/09/14 08:37:37;;;;;;;5.78;2.22;;;;;;;17.52;57.56;99475.63;10191767;29;20412;-81
2022/09/14 08:42:40;;;;;;;6.63;2.28;;;;;;;17.95;56.07;99470.22;10219431;29;20054;-81
2022/09/14 08:47:43;;;;;;;8.05;2.40;;;;;;;18.10;55.91;99473.72;10210831;29;20062;-81
2022/09/14 08:52:51;;;;;;;5.45;1.63;;;;;;;17.97;55.90;99468.16;10210113;29;20056;-80
2022/09/14 08:58:01;;;;;;;9.38;2.42;;;;;;;17.91;56.66;99467.91;10215750;29;20111;-79
2022/09/14 09:03:59;;;;;;;6.53;2.42;;;;;;;17.70;56.47;99467.91;10225356;29;20063;-79
2022/09/14 09:09:11;;;;;;;5.50;1.98;;;;;;;17.67;56.37;99458.25;10170022;29;20143;-79
2022/09/14 09:14:19;;;;;;;4.88;2.15;;;;;;;17.96;57.19;99459.16;10215539;29;20079;-79
2022/09/14 09:19:28;;;;;;;6.53;2.30;;;;;;;18.05;56.13;99470.78;10203971;29;20090;-78
2022/09/14 09:24:39;;;;;;;9.10;2.38;;;;;;;17.98;57.02;99473.41;10217394;29;20147;-82
2022/09/14 09:29:42;;;;;;;6.70;2.50;;;;;;;17.95;56.77;99467.50;10208349;29;20095;-81
2022/09/14 09:34:45;;;;;;;12.27;3.05;;;;;;;17.96;57.12;99466.47;10200751;29;20070;-81
2022/09/14 09:40:19;;;;;;;6.70;2.90;;;;;;;17.99;57.12;99457.94;10201260;29;20078;-80
2022/09/14 09:45:22;;;;;;;7.35;2.92;;;;;;;17.78;56.97;99456.06;10199927;29;20502;-81
2022/09/14 09:50:25;;;;;;;9.20;2.90;;;;;;;17.74;57.03;99431.16;10205094;29;20047;-80
2022/09/14 09:55:35;;;;;;;4.50;1.80;;;;;;;17.56;57.59;99418.03;10193851;29;20120;-80
2022/09/14 10:00:38;;;;;;;8.57;2.10;;;;;;;17.65;57.61;99427.72;10199872;29;20052;-81
2022/09/14 10:05:41;;;;;;;6.72;1.58;;;;;;;17.66;57.02;99434.00;10196752;29;20130;-80
2022/09/14 10:10:46;;;;;;;4.63;1.42;;;;;;;17.56;57.06;99438.94;10213774;29;20076;-80
2022/09/14 10:15:49;;;;;;;9.23;1.50;;;;;;;17.30;60.67;99444.88;10205334;29;20741;-80
2022/09/14 10:21:07;;;;;;;4.03;1.80;;;;;;;17.02;61.80;99449.09;10204513;29;20043;-78
2022/09/14 10:26:26;;;;;;;6.03;1.65;;;;;;;17.10;65.47;99441.91;10218630;29;20524;-78
2022/09/14 10:31:32;;;;;;;7.32;2.47;;;;;;;16.98;66.31;99447.81;10204959;29;20409;-79
2022/09/14 10:36:40;;;;;;;9.70;1.67;;;;;;;16.49;65.33;99426.69;10206444;29;20067;-78
2022/09/14 10:41:56;;;;;;;6.78;1.90;;;;;;;16.02;67.96;99432.38;10201777;29;20040;-78
2022/09/14 10:47:39;;;;;;;7.43;2.17;;;;;;;15.96;69.56;99431.22;10203177;29;20044;-79
2022/09/14 10:52:50;;;;;;;5.07;1.77;;;;;;;16.01;70.93;99430.69;10183171;29;20071;-79
2022/09/14 10:58:06;;;;;;;6.32;2.25;;;;;;;16.13;71.71;99421.94;10189499;29;20052;-79
2022/09/14 11:03:32;;;;;;;7.13;2.20;;;;;;;16.11;71.70;99418.56;10193055;29;20044;-79
2022/09/14 11:08:44;;;;;;;6.38;2.17;;;;;;;15.97;73.40;99422.09;10177854;29;20080;-79
2022/09/14 11:14:00;;;;;;;10.97;3.07;;;;;;;15.97;74.79;99423.97;10199912;29;20044;-79
2022/09/14 11:19:11;;;;;;;8.95;2.42;;;;;;;15.67;75.18;99424.69;10199416;29;20288;-79
2022/09/14 11:24:19;;;;;;;6.85;2.50;;;;;;;15.77;77.69;99431.72;10196803;29;20090;-79
2022/09/14 11:29:28;;;;;;;5.55;2.25;;;;;;;15.90;77.28;99423.84;10185752;29;20130;-79
2022/09/14 11:34:34;;;;;;;9.07;2.60;;;;;;;15.78;77.32;99436.97;10199281;29;20096;-78
2022/09/14 11:39:42;;;;;;;9.65;2.25;;;;;;;15.71;75.18;99433.28;10193232;29;20044;-79
2022/09/14 11:44:57;;;;;;;7.07;2.50;;;;;;;15.63;74.67;99427.94;10191154;29;20146;-77
2022/09/14 11:50:05;;;;;;;8.15;2.30;;;;;;;15.57;74.46;99424.09;10198769;29;20557;-79
2022/09/14 11:55:11;;;;;;;11.05;3.35;;;;;;;15.76;77.33;99424.63;10193956;29;20047;-80
2022/09/14 12:00:47;;;;;;;6.28;2.38;;;;;;;15.96;78.17;99424.97;10181371;29;20088;-78
2022/09/14 12:05:51;;;;;;;5.90;2.05;;;;;;;15.88;74.46;99420.50;10193761;29;20044;-78
2022/09/14 12:11:03;;;;;;;9.25;2.50;;;;;;;15.78;74.39;99433.44;10218883;29;20032;-79
2022/09/14 12:16:08;;;;;;;9.85;2.60;;;;;;;15.70;74.61;99426.22;10226365;29;20053;-80
2022/09/14 12:21:21;;;;;;;5.25;2.15;;;;;;;15.54;73.46;99413.63;10211442;29;20099;-78
2022/09/14 12:26:32;;;;;;;8.98;2.22;;;;;;;15.40;74.32;99414.41;10213233;29;20040;-77
2022/09/14 12:32:00;;;;;;;6.20;2.35;;;;;;;15.26;74.45;99413.28;10190283;29;21031;-80
2022/09/14 12:37:30;;;;;;;9.40;2.33;;;;;;;15.13;76.40;99403.03;10240101;29;20071;-76
2022/09/14 12:42:33;;;;;;;6.90;2.45;;;;;;;15.08;78.65;99405.44;10203061;29;20587;-78
2022/09/14 12:47:54;;;;;;;8.93;2.30;;;;;;;14.62;80.14;99405.31;10197681;29;20091;-78
2022/09/14 12:53:18;;;;;;;9.82;2.42;;;;;;;14.62;81.75;99405.31;10198166;29;20466;-78
2022/09/14 12:58:34;;;;;;;10.88;3.03;;;;;;;14.67;82.26;99402.91;10206014;29;20083;-78
2022/09/14 13:03:47;;;;;;;6.45;2.22;;;;;;;14.44;81.30;99402.00;10183298;29;20078;-80
2022/09/14 13:08:55;;;;;;;6.47;1.77;;;;;;;14.47;81.78;99399.78;10220465;29;20036;-77
2022/09/14 13:14:00;;;;;;;6.07;2.35;;;;;;;14.49;81.03;99395.03;10201064;29;20039;-78
2022/09/14 13:19:05;;;;;;;5.85;2.00;;;;;;;14.53;82.08;99384.72;10193076;29;20082;-78
2022/09/14 13:24:33;;;;;;;7.10;2.47;;;;;;;14.54;81.21;99376.47;10197635;29;20044;-78
2022/09/14 13:29:36;;;;;;;7.17;2.10;;;;;;;14.62;81.86;99374.72;10199336;29;20075;-78
2022/09/14 13:34:39;;;;;;;7.53;2.78;;;;;;;14.57;81.00;99373.41;10219008;29;20334;-78
2022/09/14 13:39:51;;;;;;;9.35;2.88;;;;;;;14.47;81.06;99370.06;10207627;29;20035;-78
2022/09/14 13:44:55;;;;;;;6.15;1.95;;;;;;;14.50;81.04;99372.41;10212795;29;20044;-79
2022/09/14 13:49:59;;;;;;;7.95;2.47;;;;;;;14.58;80.87;99366.97;10214113;29;20047;-79
2022/09/14 13:55:18;;;;;;;10.00;3.03;;;;;;;14.56;81.39;99354.66;10198048;29;20103;-81
2022/09/14 14:00:22;;;;;;;12.88;2.55;;;;;;;14.50;80.97;99349.94;10210828;29;20047;-81
2022/09/14 14:05:27;;;;;;;5.55;2.78;;;;;;;14.62;80.94;99334.19;10187104;29;20079;-79
2022/09/14 14:10:38;;;;;;;6.45;2.45;;;;;;;14.76;81.32;99319.94;10235619;29;20052;-77
2022/09/14 14:15:42;;;;;;;6.95;2.60;;;;;;;14.72;80.85;99318.59;10227941;29;20059;-80
2022/09/14 14:20:45;;;;;;;7.88;2.72;;;;;;;14.69;81.10;99318.97;10202806;29;20040;-80
2022/09/14 14:25:53;;;;;;;8.25;2.90;;;;;;;14.68;81.05;99314.59;10208017;29;20514;-81
2022/09/14 14:30:59;;;;;;;6.70;2.58;;;;;;;14.82;81.04;99313.81;10191603;29;20076;-81
2022/09/14 14:36:09;;;;;;;7.72;2.90;;;;;;;14.91;80.42;99301.94;10197172;29;20149;-78
2022/09/14 14:41:16;;;;;;;11.02;3.13;;;;;;;14.82;80.25;99313.81;10194874;29;20059;-78
2022/09/14 14:46:19;;;;;;;9.27;3.15;;;;;;;14.91;80.64;99310.03;10194212;29;20092;-78
2022/09/14 14:51:22;;;;;;;8.45;3.42;;;;;;;15.01;81.25;99316.06;10158892;29;20052;-78
2022/09/14 14:56:27;;;;;;;8.57;3.33;;;;;;;15.19;80.65;99313.09;10175737;29;20134;-77
2022/09/14 15:01:29;;;;;;;6.45;2.47;;;;;;;15.07;79.79;99317.22;10184049;29;20043;-78
2022/09/14 15:06:32;;;;;;;6.43;2.80;;;;;;;15.03;78.65;99324.84;10203309;29;20082;-78
2022/09/14 15:11:39;;;;;;;9.65;3.00;;;;;;;15.05;78.65;99325.50;10205452;29;20115;-78
2022/09/14 15:16:42;;;;;;;7.20;2.88;;;;;;;15.03;79.54;99324.00;10184474;29;20514;-77
2022/09/14 15:21:45;;;;;;;7.88;2.63;;;;;;;14.90;78.93;99313.78;10195641;29;20067;-78
2022/09/14 15:26:50;;;;;;;10.20;2.78;;;;;;;14.80;78.50;99305.03;10211860;29;20071;-78
2022/09/14 15:31:52;;;;;;;7.60;2.40;;;;;;;15.01;78.47;99313.38;10200578;29;20127;-77
2022/09/14 15:36:57;;;;;;;7.13;1.98;;;;;;;14.93;78.05;99320.69;10203380;29;20067;-79
2022/09/14 15:42:02;;;;;;;7.82;2.33;;;;;;;14.94;77.47;99309.69;10178831;29;20112;-78
2022/09/14 15:47:05;;;;;;;4.40;2.65;;;;;;;14.97;77.20;99317.44;10190226;29;20466;-80
2022/09/14 15:52:09;;;;;;;4.97;3.00;;;;;;;14.96;77.79;99304.09;10180044;29;20048;-78
2022/09/14 15:57:14;;;;;;;7.72;2.67;;;;;;;15.03;78.40;99300.50;10175488;29;20052;-79
2022/09/14 16:02:18;;;;;;;7.95;3.17;;;;;;;15.15;79.76;99289.28;10192863;29;20446;-80
2022/09/14 16:07:23;;;;;;;7.68;2.42;;;;;;;15.17;78.50;99298.06;10205020;29;20049;-79
2022/09/14 16:12:27;;;;;;;5.60;2.40;;;;;;;15.08;78.76;99291.84;10207417;29;20052;-79
2022/09/14 16:17:30;;;;;;;5.20;2.15;;;;;;;15.01;79.64;99288.19;10220269;29;20044;-80
2022/09/14 16:22:33;;;;;;;9.63;3.03;;;;;;;14.99;79.70;99285.66;10207899;29;20055;-79
2022/09/14 16:27:40;;;;;;;6.45;2.45;;;;;;;14.98;79.13;99288.56;10212740;29;20040;-79
2022/09/14 16:32:43;;;;;;;8.80;2.67;;;;;;;14.99;79.01;99285.66;10213235;29;20039;-80
2022/09/14 16:37:46;;;;;;;5.82;2.72;;;;;;;14.98;78.80;99286.69;10214966;29;20048;-78
2022/09/14 16:42:51;;;;;;;6.93;2.38;;;;;;;15.06;79.58;99272.28;10217736;29;20473;-80
2022/09/14 16:47:54;;;;;;;6.70;2.47;;;;;;;15.09;79.26;99276.47;10201006;29;20434;-77
2022/09/14 16:52:57;;;;;;;9.88;3.10;;;;;;;15.21;80.10;99269.59;10203371;29;20053;-78
2022/09/14 16:58:01;;;;;;;3.90;2.40;;;;;;;15.23;80.52;99273.81;10193946;29;20046;-79
2022/09/14 17:03:04;;;;;;;4.75;2.75;;;;;;;14.99;79.38;99282.94;10199932;29;20068;-79
2022/09/14 17:08:07;;;;;;;8.13;2.92;;;;;;;14.75;80.90;99281.25;10207023;29;20090;-79
2022/09/14 17:13:11;;;;;;;4.85;2.88;;;;;;;14.66;81.47;99266.09;10205611;29;20040;-78
2022/09/14 17:18:14;;;;;;;7.43;2.97;;;;;;;14.65;82.37;99280.66;10200794;29;20068;-79
2022/09/14 17:23:17;;;;;;;6.25;2.58;;;;;;;14.55;82.32;99282.72;10197677;29;20036;-78
2022/09/14 17:28:24;;;;;;;5.53;2.88;;;;;;;14.48;82.54;99279.91;10217981;29;20071;-78
2022/09/14 17:33:28;;;;;;;21.67;3.40;;;;;;;14.36;82.17;99283.97;10202615;29;20067;-79
2022/09/14 17:38:33;;;;;;;7.30;3.53;;;;;;;14.25;81.50;99285.19;10196661;29;20409;-78
2022/09/14 17:43:39;;;;;;;5.78;3.40;;;;;;;14.13;81.75;99292.81;10208341;29;20458;-79
2022/09/14 17:48:42;;;;;;;4.65;3.95;;;;;;;14.05;82.61;99292.00;10208975;29;20051;-78
2022/09/14 17:53:46;;;;;;;10.38;4.40;;;;;;;14.00;82.97;99302.50;10192748;29;20054;-78
2022/09/14 17:58:58;;;;;;;10.85;5.32;;;;;;;13.87;83.33;99301.16;10194975;29;20090;-79
2022/09/14 18:04:04;;;;;;;14.80;6.90;;;;;;;13.80;83.94;99293.94;10191857;29;20044;-78
2022/09/14 18:09:09;;;;;;;9.60;5.82;;;;;;;13.86;83.76;99312.13;10212980;29;20067;-78
2022/09/14 18:14:15;;;;;;;12.65;7.00;;;;;;;13.81;84.04;99306.41;10191508;29;20636;-77
2022/09/14 18:19:18;;;;;;;14.02;7.80;;;;;;;13.75;84.29;99307.94;10187583;29;20048;-79
2022/09/14 18:24:21;;;;;;;11.05;8.52;;;;;;;13.66;84.63;99317.06;10204321;29;20051;-77
2022/09/14 18:29:26;;;;;;;14.93;7.32;;;;;;;13.52;84.77;99326.69;10196886;29;20182;-77
2022/09/14 18:34:29;;;;;;;13.10;7.45;;;;;;;13.57;84.69;99337.78;10205902;29;20122;-78
2022/09/14 18:39:40;;;;;;;15.10;7.50;;;;;;;13.61;84.70;99339.16;10553472;27;20412;-78
2022/09/14 18:44:44;;;;;;;15.93;9.20;;;;;;;13.65;85.15;99347.75;10502315;28;20045;-79
2022/09/14 18:49:48;;;;;;;10.35;8.52;;;;;;;13.58;85.26;99354.84;10520320;28;20469;-78
2022/09/14 18:54:52;;;;;;;11.18;8.32;;;;;;;13.18;86.20;99357.28;10513104;28;20432;-78
2022/09/14 18:59:55;;;;;;;16.17;9.63;;;;;;;12.98;87.50;99351.38;10501729;28;20055;-78
2022/09/14 19:04:58;;;;;;;16.25;10.45;;;;;;;13.08;86.43;99353.91;10515101;28;20040;-80
2022/09/14 19:10:03;;;;;;;16.50;10.57;;;;;;;12.67;87.70;99343.03;10521936;28;20059;-79
2022/09/14 19:15:11;;;;;;;21.65;11.43;;;;;;;12.97;86.06;99352.38;10528094;28;20048;-79
2022/09/14 19:20:14;;;;;;;23.77;13.05;;;;;;;13.13;85.24;99348.00;10525198;28;20083;-80
2022/09/14 19:25:19;;;;;;;15.55;12.07;;;;;;;13.13;84.95;99342.63;10519777;28;20076;-78
2022/09/14 19:30:22;;;;;;;20.90;12.40;;;;;;;13.10;85.14;99341.09;10524573;28;20493;-79
2022/09/14 19:35:25;;;;;;;18.58;12.02;;;;;;;13.09;85.09;99346.69;10524382;28;20099;-79
2022/09/14 19:40:29;;;;;;;23.77;13.02;;;;;;;13.03;84.91;99356.28;10516350;28;20072;-81
2022/09/14 19:45:35;;;;;;;22.30;12.43;;;;;;;12.93;84.93;99356.41;10506564;28;20104;-81
2022/09/14 19:50:38;;;;;;;20.67;12.43;;;;;;;12.91;84.58;99352.19;10482439;28;20045;-80
2022/09/14 19:55:42;;;;;;;20.25;12.23;;;;;;;12.87;84.37;99353.53;10495318;28;20040;-78
2022/09/14 20:00:45;;;;;;;24.55;13.50;;;;;;;12.83;84.54;99347.59;10507066;28;20052;-77
2022/09/14 20:05:47;;;;;;;23.33;12.32;;;;;;;12.79;84.37;99351.66;10481636;28;20132;-78
2022/09/14 20:10:52;;;;;;;16.52;10.52;;;;;;;12.71;84.30;99354.31;10504806;28;20048;-80
2022/09/14 20:15:54;;;;;;;21.35;11.88;;;;;;;12.71;84.21;99352.47;10519196;28;20045;-79
2022/09/14 20:20:57;;;;;;;19.70;11.20;;;;;;;12.79;83.97;99357.03;10499978;28;20055;-83
2022/09/14 20:26:04;;;;;;;23.15;12.52;;;;;;;12.81;84.17;99366.66;10489455;28;20087;-82
2022/09/14 20:31:10;;;;;;;23.52;12.43;;;;;;;12.79;84.35;99363.28;10470770;28;20060;-82
2022/09/14 20:36:16;;;;;;;23.70;13.65;;;;;;;12.68;84.34;99381.59;10483732;28;20045;-81
2022/09/14 20:41:22;;;;;;;29.55;13.52;;;;;;;12.65;84.43;99373.84;10481487;28;20052;-81
2022/09/14 20:46:26;;;;;;;21.23;13.02;;;;;;;12.62;84.64;99382.25;10481018;28;20071;-81
2022/09/14 20:51:29;;;;;;;25.38;14.23;;;;;;;12.54;84.43;99380.34;10459390;28;20100;-80
2022/09/14 20:56:35;;;;;;;27.48;15.13;;;;;;;12.48;84.73;99371.06;10477560;28;20037;-79
2022/09/14 21:01:41;;;;;;;28.67;14.85;;;;;;;12.48;84.64;99380.97;10479735;28;20053;-80
2022/09/14 21:06:45;;;;;;;25.40;14.60;;;;;;;12.54;84.75;99377.66;10464781;28;20048;-80
2022/09/14 21:11:50;;;;;;;23.45;13.70;;;;;;;12.58;85.15;99385.22;10474927;28;20084;-81
2022/09/14 21:16:55;;;;;;;20.58;13.88;;;;;;;12.60;85.20;99391.31;10481060;28;20071;-82
2022/09/14 21:21:58;;;;;;;24.15;13.43;;;;;;;12.63;85.50;99395.53;10479684;28;20049;-81
2022/09/14 21:27:03;;;;;;;21.20;12.93;;;;;;;12.66;85.33;99403.28;10462699;28;20053;-82
2022/09/14 21:32:06;;;;;;;20.88;12.88;;;;;;;12.68;85.42;99419.31;10473771;28;20524;-80
2022/09/14 21:37:11;;;;;;;22.80;12.95;;;;;;;12.70;85.42;99418.16;10472862;28;20060;-81
2022/09/14 21:42:15;;;;;;;21.77;13.77;;;;;;;12.75;85.67;99401.47;10487420;28;20061;-81
2022/09/14 21:47:18;;;;;;;18.02;12.27;;;;;;;12.75;85.33;99409.56;10490238;28;20037;-79
2022/09/14 21:52:20;;;;;;;21.02;12.55;;;;;;;12.70;84.98;99411.88;10482564;28;20098;-80
2022/09/14 21:57:24;;;;;;;18.95;11.00;;;;;;;12.56;84.26;99414.22;10493827;28;20056;-82
2022/09/14 22:02:27;;;;;;;19.15;11.02;;;;;;;12.56;83.75;99416.03;10491346;28;20044;-81
2022/09/14 22:07:30;;;;;;;16.70;11.23;;;;;;;12.56;83.55;99416.91;10464542;28;20052;-80
2022/09/14 22:12:34;;;;;;;19.02;12.30;;;;;;;12.58;83.51;99417.56;10477170;28;20139;-81
2022/09/14 22:17:37;;;;;;;22.00;11.20;;;;;;;12.53;83.18;99409.16;10504475;28;20063;-79
2022/09/14 22:22:43;;;;;;;20.85;10.68;;;;;;;12.51;82.97;99408.44;10482671;28;20048;-81
2022/09/14 22:27:47;;;;;;;21.73;9.93;;;;;;;12.51;82.08;99404.91;10475159;28;20067;-81
2022/09/14 22:32:50;;;;;;;16.05;9.50;;;;;;;12.50;82.07;99404.06;10481688;28;20076;-81
2022/09/14 22:37:53;;;;;;;15.50;9.45;;;;;;;12.52;82.30;99398.53;10490824;28;20052;-81
2022/09/14 22:42:57;;;;;;;16.48;9.50;;;;;;;12.54;82.41;99393.81;10483448;28;20052;-81
2022/09/14 22:48:00;;;;;;;18.05;10.60;;;;;;;12.50;82.51;99395.13;10487408;28;20105;-81
2022/09/14 22:53:03;;;;;;;17.77;11.15;;;;;;;12.41;82.60;99393.41;10487869;28;20045;-79
2022/09/14 22:58:08;;;;;;;21.50;11.18;;;;;;;12.37;82.57;99391.03;10488222;28;20079;-81
2022/09/14 23:03:12;;;;;;;24.15;11.52;;;;;;;12.30;82.96;99386.44;10478125;28;20069;-81
2022/09/14 23:08:15;;;;;;;19.05;12.32;;;;;;;12.20;82.90;99383.00;10463439;28;20072;-81
2022/09/14 23:13:19;;;;;;;19.98;12.45;;;;;;;12.16;83.29;99401.31;10489480;28;20052;-78
2022/09/14 23:18:22;;;;;;;22.95;12.93;;;;;;;12.11;83.71;99403.63;10503016;28;20075;-81
2022/09/14 23:23:25;;;;;;;26.92;13.02;;;;;;;12.27;83.37;99395.66;10488283;28;20036;-81
2022/09/14 23:28:29;;;;;;;28.35;15.02;;;;;;;12.37;83.61;99399.13;10490169;28;20493;-81
2022/09/14 23:33:33;;;;;;;24.15;13.95;;;;;;;12.51;83.35;99411.16;10485548;28;20056;-79
2022/09/14 23:38:35;;;;;;;25.27;14.13;;;;;;;12.51;83.18;99411.16;10521877;28;20053;-78